createdAt,value
2018-03-01T00:01:04.307Z,42.57
2018-03-01T00:03:30.695Z,42.03
2018-03-01T00:05:57.058Z,40.37
2018-03-01T00:08:23.475Z,53.33
2018-03-01T00:10:49.853Z,54.93
2018-03-01T00:13:16.238Z,48.47
2018-03-01T00:15:42.680Z,50.90
2018-03-01T00:18:09.030Z,49.77
2018-03-01T00:20:35.386Z,58.13
2018-03-01T00:23:01.766Z,58.70
2018-03-01T00:25:28.165Z,64.80
2018-03-01T00:27:54.602Z,67.73
2018-03-01T00:30:20.961Z,70.00
2018-03-01T00:32:47.356Z,57.23
2018-03-01T00:35:13.749Z,61.97
2018-03-01T00:37:40.129Z,60.77
2018-03-01T00:40:06.522Z,65.87
2018-03-01T00:42:32.926Z,69.97
2018-03-01T00:44:59.381Z,65.03
2018-03-01T00:47:25.754Z,53.37
2018-03-01T00:49:52.155Z,58.73
2018-03-01T00:52:18.546Z,53.90
2018-03-01T00:54:44.909Z,55.30
2018-03-01T00:57:11.305Z,53.70
2018-03-01T00:59:37.696Z,62.27
2018-03-01T01:02:04.104Z,59.57
2018-03-01T01:04:30.527Z,53.80
2018-03-01T01:06:56.906Z,57.77
2018-03-01T01:09:23.276Z,47.37
2018-03-01T01:11:49.761Z,55.00
2018-03-01T01:14:16.142Z,54.83
2018-03-01T01:16:42.517Z,48.30
2018-03-01T01:19:08.934Z,51.10
2018-03-01T01:21:35.409Z,48.57
2018-03-01T01:24:01.837Z,43.37
2018-03-01T01:26:28.210Z,47.10
2018-03-01T01:28:56.058Z,44.37
2018-03-01T01:31:22.465Z,45.30
2018-03-01T01:33:49.238Z,46.30
2018-03-01T01:36:15.678Z,47.10
2018-03-01T01:38:42.111Z,44.03
2018-03-01T01:41:08.480Z,45.67
2018-03-01T01:43:34.847Z,42.10
2018-03-01T01:46:01.247Z,44.00
2018-03-01T01:48:27.603Z,47.43
2018-03-01T01:51:02.938Z,42.57
2018-03-01T01:53:29.313Z,50.23
2018-03-01T01:55:55.725Z,48.40
2018-03-01T01:58:22.066Z,43.53
2018-03-01T02:00:48.487Z,50.20
2018-03-01T02:03:14.887Z,48.13
2018-03-01T02:05:41.253Z,54.40
2018-03-01T02:08:07.614Z,55.00
2018-03-01T02:10:35.362Z,51.60
2018-03-01T02:13:10.086Z,50.23
2018-03-01T02:15:36.922Z,51.27
2018-03-01T02:18:09.397Z,49.53
2018-03-01T02:20:35.795Z,54.80
2018-03-01T02:23:11.105Z,49.53
2018-03-01T02:25:46.748Z,50.30
2018-03-01T02:28:14.515Z,50.50
2018-03-01T02:30:40.938Z,45.43
2018-03-01T02:33:07.363Z,52.23
2018-03-01T02:35:33.829Z,45.37
2018-03-01T02:38:00.239Z,53.87
2018-03-01T02:40:26.650Z,50.90
2018-03-01T02:42:53.022Z,50.90
2018-03-01T02:45:19.429Z,47.57
2018-03-01T02:47:45.863Z,46.80
2018-03-01T02:50:12.278Z,51.30
2018-03-01T02:52:38.742Z,55.90
2018-03-01T02:55:05.118Z,51.83
2018-03-01T02:57:31.529Z,66.27
2018-03-01T02:59:57.931Z,53.97
2018-03-01T03:02:24.310Z,46.20
2018-03-01T03:04:50.698Z,49.17
2018-03-01T03:07:17.085Z,45.87
2018-03-01T03:09:43.461Z,47.03
2018-03-01T03:12:09.859Z,44.90
2018-03-01T03:14:36.258Z,44.83
2018-03-01T03:17:02.814Z,46.87
2018-03-01T03:19:29.174Z,48.73
2018-03-01T03:21:55.569Z,45.20
2018-03-01T03:24:21.934Z,44.93
2018-03-01T03:26:48.354Z,46.60
2018-03-01T03:29:14.758Z,45.97
2018-03-01T03:31:41.136Z,48.47
2018-03-01T03:34:07.506Z,46.70
2018-03-01T03:36:33.884Z,52.03
2018-03-01T03:39:00.300Z,57.77
2018-03-01T03:41:26.665Z,53.13
2018-03-01T03:43:53.040Z,40.57
2018-03-01T03:46:19.447Z,43.53
2018-03-01T03:48:45.811Z,42.63
2018-03-01T03:51:13.430Z,44.73
2018-03-01T03:53:39.794Z,47.67
2018-03-01T03:56:06.189Z,39.47
2018-03-01T03:58:32.557Z,47.63
2018-03-01T04:00:58.946Z,47.93
2018-03-01T04:03:32.311Z,49.17
2018-03-01T04:05:58.678Z,51.80
2018-03-01T04:08:25.053Z,57.83
2018-03-01T04:10:51.559Z,55.83
2018-03-01T04:13:17.959Z,53.83
2018-03-01T04:15:45.354Z,61.43
2018-03-01T04:18:11.763Z,48.70
2018-03-01T04:20:38.153Z,57.03
2018-03-01T04:23:04.547Z,62.63
2018-03-01T04:25:30.953Z,57.63
2018-03-01T04:27:57.372Z,64.13
2018-03-01T04:30:23.762Z,67.40
2018-03-01T04:32:50.149Z,70.27
2018-03-01T04:35:16.683Z,67.67
2018-03-01T04:37:43.125Z,73.07
2018-03-01T04:40:09.500Z,52.57
2018-03-01T04:42:39.986Z,50.80
2018-03-01T04:45:06.490Z,54.47
2018-03-01T04:47:32.873Z,46.30
2018-03-01T05:03:21.021Z,109.33
2018-03-01T05:05:47.377Z,108.10
2018-03-01T05:08:13.762Z,114.63
2018-03-01T05:10:40.246Z,113.77
2018-03-01T05:13:06.613Z,114.67
2018-03-01T05:15:32.958Z,114.37
2018-03-01T05:17:59.389Z,116.63
2018-03-01T05:20:25.745Z,130.13
2018-03-01T05:22:52.109Z,118.07
2018-03-01T05:25:18.470Z,142.13
2018-03-01T05:27:44.865Z,110.00
2018-03-01T05:30:11.205Z,112.67
2018-03-01T05:32:37.590Z,108.60
2018-03-01T05:35:03.996Z,116.67
2018-03-01T05:37:30.344Z,148.37
2018-03-01T05:39:56.724Z,126.47
2018-03-01T05:42:23.147Z,137.73
2018-03-01T05:44:49.546Z,143.17
2018-03-01T05:47:15.921Z,142.57
2018-03-01T05:49:42.290Z,152.90
2018-03-01T05:52:08.642Z,151.97
2018-03-01T05:54:35.050Z,155.30
2018-03-01T05:57:01.438Z,169.00
2018-03-01T05:59:27.861Z,171.20
2018-03-01T06:01:54.226Z,150.93
2018-03-01T06:04:20.651Z,149.57
2018-03-01T06:06:47.153Z,152.73
2018-03-01T06:09:13.578Z,159.03
2018-03-01T06:11:39.959Z,179.10
2018-03-01T06:14:06.809Z,209.13
2018-03-01T06:16:33.322Z,204.53
2018-03-01T06:18:59.767Z,198.73
2018-03-01T06:21:26.203Z,168.13
2018-03-01T06:23:52.627Z,145.80
2018-03-01T06:26:19.005Z,139.70
2018-03-01T06:28:45.421Z,136.70
2018-03-01T06:31:11.766Z,126.47
2018-03-01T06:33:38.133Z,125.40
2018-03-01T06:36:04.543Z,120.43
2018-03-01T06:38:30.901Z,126.53
2018-03-01T06:40:57.281Z,129.20
2018-03-01T06:43:23.724Z,129.33
2018-03-01T06:45:50.215Z,148.20
2018-03-01T06:48:16.625Z,143.63
2018-03-01T06:50:43.060Z,124.90
2018-03-01T06:53:09.505Z,119.57
2018-03-01T06:55:35.906Z,118.60
2018-03-01T06:58:02.343Z,128.37
2018-03-01T07:00:28.774Z,126.97
2018-03-01T07:02:55.174Z,108.60
2018-03-01T07:05:21.758Z,120.30
2018-03-01T07:07:48.146Z,118.60
2018-03-01T07:10:14.525Z,437.10
2018-03-01T07:12:41.087Z,372.07
2018-03-01T07:15:07.483Z,344.70
2018-03-01T07:17:33.908Z,197.03
2018-03-01T07:20:00.319Z,171.10
2018-03-01T07:22:26.729Z,139.30
2018-03-01T07:24:53.128Z,161.00
2018-03-01T07:27:19.534Z,145.80
2018-03-01T07:29:45.946Z,148.93
2018-03-01T07:32:12.293Z,148.87
2018-03-01T07:34:38.686Z,161.77
2018-03-01T07:37:05.197Z,173.60
2018-03-01T07:39:31.676Z,172.03
2018-03-01T07:41:58.050Z,150.27
2018-03-01T07:44:24.422Z,136.03
2018-03-01T07:46:50.833Z,124.20
2018-03-01T07:49:17.223Z,102.13
2018-03-01T07:51:43.628Z,90.30
2018-03-01T07:54:10.022Z,85.37
2018-03-01T07:56:36.587Z,80.73
2018-03-01T07:59:03.061Z,73.97
2018-03-01T08:01:29.437Z,72.57
2018-03-01T08:03:55.857Z,68.87
2018-03-01T08:06:22.223Z,56.70
2018-03-01T08:08:48.593Z,56.03
2018-03-01T08:11:14.976Z,61.07
2018-03-01T08:13:41.409Z,58.13
2018-03-01T08:16:07.806Z,59.63
2018-03-01T08:18:34.189Z,47.10
2018-03-01T08:21:00.572Z,51.43
2018-03-01T08:23:26.958Z,49.53
2018-03-01T08:25:53.336Z,45.57
2018-03-01T08:28:19.728Z,38.17
2018-03-01T08:30:46.130Z,43.00
2018-03-01T08:33:12.683Z,39.57
2018-03-01T08:35:39.126Z,31.43
2018-03-01T08:38:05.483Z,38.07
2018-03-01T08:40:31.838Z,41.83
2018-03-01T08:42:58.193Z,37.67
2018-03-01T08:45:24.559Z,40.03
2018-03-01T08:47:50.925Z,38.47
2018-03-01T08:50:17.301Z,37.43
2018-03-01T08:52:43.661Z,53.13
2018-03-01T08:55:10.046Z,42.73
2018-03-01T08:57:36.418Z,46.70
2018-03-01T09:00:02.886Z,44.90
2018-03-01T09:02:29.270Z,45.87
2018-03-01T09:04:55.652Z,43.37
2018-03-01T09:07:22.026Z,40.43
2018-03-01T09:09:48.421Z,39.07
2018-03-01T09:12:14.828Z,46.87
2018-03-01T09:14:41.198Z,47.47
2018-03-01T09:17:07.558Z,52.13
2018-03-01T09:19:33.949Z,41.93
2018-03-01T09:22:00.357Z,40.20
2018-03-01T09:24:26.740Z,46.03
2018-03-01T09:26:53.164Z,39.43
2018-03-01T09:29:19.542Z,60.47
2018-03-01T09:31:46.033Z,46.63
2018-03-01T09:34:12.403Z,41.53
2018-03-01T09:36:38.773Z,42.53
2018-03-01T09:39:05.163Z,39.77
2018-03-01T09:41:31.560Z,34.67
2018-03-01T09:43:57.973Z,37.13
2018-03-01T09:46:24.358Z,36.07
2018-03-01T09:48:50.734Z,40.50
2018-03-01T09:51:17.087Z,36.03
2018-03-01T09:53:43.450Z,35.93
2018-03-01T09:56:09.806Z,43.87
2018-03-01T09:58:36.179Z,44.77
2018-03-01T10:01:02.551Z,38.93
2018-03-01T10:03:28.916Z,38.60
2018-03-01T10:05:55.272Z,35.10
2018-03-01T10:08:21.665Z,39.27
2018-03-01T10:10:48.022Z,40.17
2018-03-01T10:13:14.391Z,40.37
2018-03-01T10:15:40.782Z,33.93
2018-03-01T10:18:07.191Z,34.33
2018-03-01T10:20:33.649Z,35.50
2018-03-01T10:23:00.038Z,40.70
2018-03-01T10:25:26.423Z,30.47
2018-03-01T10:27:52.790Z,29.60
2018-03-01T10:30:19.176Z,29.70
2018-03-01T10:32:45.642Z,33.53
2018-03-01T10:35:11.998Z,33.90
2018-03-01T10:37:38.346Z,32.70
2018-03-01T10:40:04.702Z,33.57
2018-03-01T10:42:31.081Z,31.80
2018-03-01T10:44:57.470Z,33.03
2018-03-01T10:47:23.863Z,35.67
2018-03-01T10:49:50.231Z,34.13
2018-03-01T10:52:16.594Z,35.27
2018-03-01T10:54:42.950Z,31.83
2018-03-01T10:57:09.386Z,43.83
2018-03-01T10:59:35.839Z,31.73
2018-03-01T11:02:02.297Z,39.80
2018-03-01T11:04:28.759Z,31.03
2018-03-01T11:06:55.118Z,31.30
2018-03-01T11:09:21.517Z,27.40
2018-03-01T11:11:47.899Z,29.17
2018-03-01T11:14:14.298Z,26.30
2018-03-01T11:16:40.710Z,27.93
2018-03-01T11:19:07.229Z,27.30
2018-03-01T11:21:33.623Z,30.33
2018-03-01T11:23:59.988Z,28.27
2018-03-01T11:26:26.353Z,28.43
2018-03-01T11:28:52.751Z,25.70
2018-03-01T11:31:19.162Z,28.00
2018-03-01T11:33:45.537Z,25.83
2018-03-01T11:36:11.904Z,31.57
2018-03-01T11:38:38.271Z,28.60
2018-03-01T11:41:04.669Z,26.87
2018-03-01T11:43:31.114Z,27.53
2018-03-01T11:45:57.500Z,23.57
2018-03-01T11:48:23.885Z,22.33
2018-03-01T11:50:50.333Z,23.53
2018-03-01T11:53:16.800Z,24.57
2018-03-01T11:55:43.210Z,23.33
2018-03-01T11:58:09.595Z,21.07
2018-03-01T12:00:36.034Z,67.13
2018-03-01T12:03:02.407Z,69.70
2018-03-01T12:05:28.818Z,41.80
2018-03-01T12:07:55.230Z,29.37
2018-03-01T12:10:21.703Z,24.47
2018-03-01T12:12:48.130Z,22.30
2018-03-01T12:15:14.594Z,27.93
2018-03-01T12:17:40.970Z,26.57
2018-03-01T12:20:07.402Z,27.70
2018-03-01T12:22:33.818Z,26.70
2018-03-01T12:25:00.238Z,27.60
2018-03-01T12:27:26.642Z,22.20
2018-03-01T12:29:53.152Z,23.63
2018-03-01T12:32:19.546Z,25.83
2018-03-01T12:34:46.011Z,30.47
2018-03-01T12:37:12.415Z,30.97
2018-03-01T12:39:38.833Z,32.43
2018-03-01T12:42:05.243Z,29.27
2018-03-01T12:44:31.749Z,30.47
2018-03-01T12:46:58.175Z,26.83
2018-03-01T12:49:24.602Z,29.23
2018-03-01T12:51:51.071Z,39.37
2018-03-01T12:54:17.545Z,32.97
2018-03-01T12:56:44.078Z,38.30
2018-03-01T12:59:10.501Z,35.63
2018-03-01T13:01:36.929Z,32.53
2018-03-01T13:04:03.361Z,34.53
2018-03-01T13:06:29.774Z,40.17
2018-03-01T13:08:56.205Z,38.13
2018-03-01T13:11:22.655Z,34.43
2018-03-01T13:13:49.135Z,31.70
2018-03-01T13:16:15.587Z,32.07
2018-03-01T13:18:42.002Z,33.03
2018-03-01T13:21:08.499Z,33.50
2018-03-01T13:23:35.096Z,34.50
2018-03-01T13:26:01.610Z,31.33
2018-03-01T13:28:28.149Z,31.87
2018-03-01T13:30:55.372Z,31.63
2018-03-01T13:33:29.961Z,31.97
2018-03-01T13:35:56.413Z,32.43
2018-03-01T13:38:22.846Z,33.13
2018-03-01T13:40:49.297Z,31.80
2018-03-01T13:43:18.806Z,37.20
2018-03-01T13:45:48.197Z,32.63
2018-03-01T13:48:14.680Z,31.23
2018-03-01T13:50:41.138Z,26.37
2018-03-01T13:53:07.566Z,28.87
2018-03-01T13:55:34.062Z,34.10
2018-03-01T13:58:00.543Z,30.10
2018-03-01T14:00:27.031Z,35.50
2018-03-01T14:02:53.598Z,36.23
2018-03-01T14:05:20.108Z,33.77
2018-03-01T14:21:16.358Z,34.93
2018-03-01T14:23:44.895Z,38.67
2018-03-01T14:26:16.290Z,33.73
2018-03-01T14:28:42.776Z,32.00
2018-03-01T14:31:09.290Z,28.40
2018-03-01T14:33:35.722Z,29.67
2018-03-01T14:36:02.111Z,30.17
2018-03-01T14:38:28.529Z,25.00
2018-03-01T14:40:55.074Z,30.33
2018-03-01T14:43:21.530Z,25.40
2018-03-01T14:45:47.915Z,30.87
2018-03-01T14:48:14.293Z,29.87
2018-03-01T14:50:40.705Z,28.50
2018-03-01T14:53:07.117Z,29.97
2018-03-01T14:55:33.514Z,31.97
2018-03-01T14:57:59.942Z,33.57
2018-03-01T15:00:26.359Z,50.50
2018-03-01T15:02:52.813Z,79.90
2018-03-01T15:05:19.221Z,86.53
2018-03-01T15:07:45.654Z,99.07
2018-03-01T15:10:12.166Z,97.70
2018-03-01T15:12:38.547Z,85.60
2018-03-01T15:15:04.937Z,91.40
2018-03-01T15:17:31.394Z,87.50
2018-03-01T15:19:57.754Z,85.03
2018-03-01T15:22:24.154Z,78.37
2018-03-01T15:24:50.708Z,80.40
2018-03-01T15:27:17.095Z,74.37
2018-03-01T15:29:43.458Z,71.93
2018-03-01T15:32:09.855Z,75.43
2018-03-01T15:34:36.301Z,67.83
2018-03-01T15:37:02.709Z,66.40
2018-03-01T15:39:29.214Z,69.43
2018-03-01T15:41:55.669Z,76.10
2018-03-01T15:44:22.025Z,69.57
2018-03-01T15:46:48.451Z,67.83
2018-03-01T15:49:14.869Z,69.10
2018-03-01T15:51:41.313Z,81.87
2018-03-01T15:54:07.697Z,72.53
2018-03-01T15:56:34.122Z,70.17
2018-03-01T15:59:00.594Z,60.27
2018-03-01T16:01:26.974Z,60.57
2018-03-01T16:03:53.426Z,57.77
2018-03-01T16:06:19.885Z,65.67
2018-03-01T16:08:46.250Z,61.73
2018-03-01T16:11:12.740Z,59.73
2018-03-01T16:13:39.150Z,63.97
2018-03-01T16:16:05.559Z,64.57
2018-03-01T16:18:32.027Z,57.13
2018-03-01T16:20:58.449Z,66.00
2018-03-01T16:23:24.803Z,67.33
2018-03-01T16:25:51.194Z,70.03
2018-03-01T16:28:17.594Z,68.63
2018-03-01T16:30:48.462Z,95.37
2018-03-01T16:33:14.866Z,122.93
2018-03-01T16:35:41.302Z,75.90
2018-03-01T16:38:07.701Z,63.13
2018-03-01T16:40:34.153Z,73.40
2018-03-01T16:43:00.615Z,88.20
2018-03-01T16:45:27.012Z,78.57
2018-03-01T16:47:53.409Z,81.07
2018-03-01T16:50:19.866Z,73.27
2018-03-01T16:52:46.286Z,76.50
2018-03-01T16:55:12.671Z,72.10
2018-03-01T16:57:39.106Z,61.63
2018-03-01T17:00:05.527Z,79.67
2018-03-01T17:02:31.968Z,90.80
2018-03-01T17:04:58.364Z,79.93
2018-03-01T17:07:24.754Z,71.73
2018-03-01T17:09:51.147Z,64.53
2018-03-01T17:12:17.548Z,66.53
2018-03-01T17:14:43.963Z,66.30
2018-03-01T17:17:10.355Z,67.53
2018-03-01T17:19:36.784Z,72.40
2018-03-01T17:22:03.154Z,72.97
2018-03-01T17:24:29.563Z,69.17
2018-03-01T17:26:55.968Z,67.07
2018-03-01T17:29:22.362Z,77.50
2018-03-01T17:31:48.750Z,72.73
2018-03-01T17:34:15.164Z,69.17
2018-03-01T17:36:41.585Z,62.03
2018-03-01T17:39:07.990Z,64.40
2018-03-01T17:41:34.385Z,65.63
2018-03-01T17:44:00.766Z,63.90
2018-03-01T17:46:27.187Z,69.23
2018-03-01T17:48:53.645Z,66.03
2018-03-01T17:51:20.029Z,58.53
2018-03-01T17:53:46.451Z,65.97
2018-03-01T17:56:12.886Z,61.37
2018-03-01T17:58:39.281Z,65.13
2018-03-01T18:01:05.742Z,66.40
2018-03-01T18:03:32.173Z,65.00
2018-03-01T18:05:58.590Z,80.00
2018-03-01T18:08:24.970Z,70.60
2018-03-01T18:10:51.430Z,80.23
2018-03-01T18:13:17.827Z,72.13
2018-03-01T18:15:44.223Z,68.10
2018-03-01T18:18:10.623Z,67.57
2018-03-01T18:20:37.006Z,65.23
2018-03-01T18:23:03.422Z,69.40
2018-03-01T18:25:29.828Z,71.20
2018-03-01T18:27:56.256Z,71.27
2018-03-01T18:30:22.614Z,80.90
2018-03-01T18:32:49.038Z,61.73
2018-03-01T18:35:15.410Z,78.33
2018-03-01T18:37:41.800Z,73.27
2018-03-01T18:40:08.289Z,75.97
2018-03-01T18:42:34.705Z,85.83
2018-03-01T18:45:01.110Z,76.97
2018-03-01T18:47:27.577Z,70.70
2018-03-01T18:49:53.989Z,62.43
2018-03-01T18:52:20.402Z,68.97
2018-03-01T18:54:46.870Z,83.30
2018-03-01T18:57:13.253Z,97.10
2018-03-01T18:59:39.626Z,111.67
2018-03-01T19:02:06.014Z,106.53
2018-03-01T19:04:32.422Z,92.17
2018-03-01T19:06:58.813Z,83.27
2018-03-01T19:09:25.207Z,69.93
2018-03-01T19:11:51.645Z,72.57
2018-03-01T19:14:18.035Z,75.20
2018-03-01T19:16:44.505Z,73.07
2018-03-01T19:19:10.898Z,75.53
2018-03-01T19:21:37.285Z,73.13
2018-03-01T19:24:03.719Z,69.17
2018-03-01T19:26:30.135Z,70.13
2018-03-01T19:28:56.514Z,68.33
2018-03-01T19:31:22.888Z,65.33
2018-03-01T19:33:49.306Z,68.77
2018-03-01T19:36:15.685Z,73.83
2018-03-01T19:38:42.381Z,68.80
2018-03-01T19:41:08.765Z,71.73
2018-03-01T19:43:35.142Z,75.87
2018-03-01T19:46:01.579Z,82.90
2018-03-01T19:48:27.991Z,79.20
2018-03-01T19:50:54.403Z,83.00
2018-03-01T19:53:20.803Z,97.37
2018-03-01T19:55:47.239Z,87.80
2018-03-01T19:58:13.638Z,87.80
2018-03-01T20:00:40.050Z,80.07
2018-03-01T20:03:06.511Z,76.07
2018-03-01T20:05:32.927Z,71.07
2018-03-01T20:07:59.340Z,71.07
2018-03-01T20:10:26.191Z,67.77
2018-03-01T20:12:55.930Z,70.53
2018-03-01T20:15:24.523Z,68.73
2018-03-01T20:17:52.619Z,62.67
2018-03-01T20:20:19.806Z,61.13
2018-03-01T20:22:46.301Z,58.47
2018-03-01T20:25:12.704Z,65.77
2018-03-01T20:27:39.100Z,69.43
2018-03-01T20:30:05.522Z,64.87
2018-03-01T20:32:32.075Z,61.87
2018-03-01T20:34:59.262Z,52.07
2018-03-01T20:37:27.134Z,54.10
2018-03-01T20:39:55.746Z,59.90
2018-03-01T20:42:24.089Z,68.73
2018-03-01T20:44:50.986Z,64.83
2018-03-01T20:47:17.510Z,68.73
2018-03-01T20:49:43.870Z,73.93
2018-03-01T20:52:10.634Z,71.83
2018-03-01T20:54:37.367Z,70.70
2018-03-01T20:57:03.961Z,70.73
2018-03-01T20:59:30.421Z,66.40
2018-03-01T21:01:56.975Z,51.87
2018-03-01T21:04:23.398Z,67.40
2018-03-01T21:06:49.815Z,66.03
2018-03-01T21:09:16.182Z,59.40
2018-03-01T21:11:42.644Z,67.63
2018-03-01T21:14:09.066Z,67.17
2018-03-01T21:16:35.466Z,77.93
2018-03-01T21:19:01.941Z,64.97
2018-03-01T21:21:28.304Z,69.30
2018-03-01T21:23:54.671Z,64.83
2018-03-01T21:26:21.090Z,72.53
2018-03-01T21:28:47.465Z,68.27
2018-03-01T21:31:14.077Z,62.10
2018-03-01T21:33:40.642Z,61.50
2018-03-01T21:36:07.095Z,58.70
2018-03-01T21:38:33.484Z,64.97
2018-03-01T21:40:59.870Z,63.33
2018-03-01T21:43:26.383Z,66.40
2018-03-01T21:45:52.766Z,57.97
2018-03-01T21:48:19.219Z,59.07
2018-03-01T21:50:45.673Z,55.37
2018-03-01T21:53:12.132Z,55.83
2018-03-01T21:55:38.538Z,51.93
2018-03-01T21:58:04.970Z,56.07
2018-03-01T22:00:31.366Z,54.30
2018-03-01T22:02:57.830Z,61.33
2018-03-01T22:05:24.226Z,60.23
2018-03-01T22:07:50.635Z,56.40
2018-03-01T22:10:17.177Z,50.50
2018-03-01T22:12:43.669Z,52.80
2018-03-01T22:15:10.925Z,48.43
2018-03-01T22:17:37.372Z,40.70
2018-03-01T22:20:03.770Z,45.00
2018-03-01T22:22:30.209Z,44.03
2018-03-01T22:24:56.629Z,45.50
2018-03-01T22:27:23.301Z,43.40
2018-03-01T22:29:49.731Z,41.10
2018-03-01T22:32:16.186Z,42.27
2018-03-01T22:34:42.636Z,41.07
2018-03-01T22:37:09.026Z,37.27
2018-03-01T22:39:35.406Z,45.07
2018-03-01T22:42:01.836Z,44.03
2018-03-01T22:44:28.270Z,44.40
2018-03-01T22:46:54.671Z,45.83
2018-03-01T22:49:21.047Z,38.57
2018-03-01T22:51:47.397Z,40.17
2018-03-01T22:54:13.771Z,34.50
2018-03-01T22:56:40.162Z,40.23
2018-03-01T22:59:06.543Z,41.23
2018-03-01T23:01:32.954Z,37.97
2018-03-01T23:03:59.383Z,42.23
2018-03-01T23:06:25.759Z,43.87
2018-03-01T23:08:52.183Z,37.90
2018-03-01T23:11:18.573Z,36.43
2018-03-01T23:13:44.973Z,35.57
2018-03-01T23:16:11.322Z,36.00
2018-03-01T23:18:37.689Z,35.07
2018-03-01T23:21:04.070Z,39.67
2018-03-01T23:23:30.424Z,45.83
2018-03-01T23:25:57.004Z,48.57
2018-03-01T23:28:23.570Z,46.20
2018-03-01T23:30:49.947Z,43.10
2018-03-01T23:33:16.310Z,43.87
2018-03-01T23:35:42.750Z,43.43
2018-03-01T23:38:09.163Z,45.40
2018-03-01T23:40:35.597Z,41.63
2018-03-01T23:43:01.985Z,39.37
2018-03-01T23:45:28.443Z,41.67
2018-03-01T23:47:54.882Z,40.87
2018-03-01T23:50:21.245Z,41.90
2018-03-01T23:52:47.782Z,41.83
2018-03-01T23:55:14.149Z,41.30
2018-03-01T23:57:40.532Z,43.40
